This is the latest recevied weather packets stored in our database for station/object KB9HUO. If no packets are shown the sender has not sent any weather packets the latest 1 day(s).
| Time | Temp. | Humidity | Pressure | Rain* | Wind** | Luminosity | Snow |
|---|---|---|---|---|---|---|---|
| 1778025651 | 12.78° C | 97% | 1007.9 hPa | 1.27 mm | 0.89 m/s, 325° | 1 W/m² | - |
| 1778025349 | 13.33° C | 97% | 1007.6 hPa | 1.78 mm | 0 m/s | 1 W/m² | - |
| 1778025045 | 13.33° C | 97% | 1007.6 hPa | 3.05 mm | 0.45 m/s, 328° | 2 W/m² | - |
| 1778024742 | 13.33° C | 97% | 1007.7 hPa | 3.05 mm | 0 m/s | 4 W/m² | - |
| 1778024439 | 13.89° C | 97% | 1007.6 hPa | 10.67 mm | 0.89 m/s, 308° | 5 W/m² | - |
| 1778024136 | 15° C | 96% | 1007.6 hPa | 13.72 mm | 0.89 m/s, 311° | 4 W/m² | - |
| 1778023834 | 16.11° C | 97% | 1007.6 hPa | 7.87 mm | 1.34 m/s, 302° | 5 W/m² | - |
| 1778023532 | 16.11° C | 97% | 1007.4 hPa | 3.05 mm | 0 m/s | 5 W/m² | - |
| 1778023229 | 16.11° C | 97% | 1007.2 hPa | 4.83 mm | 0 m/s | 5 W/m² | - |
| 1778022925 | 16.11° C | 97% | 1007.1 hPa | 3.05 mm | 0 m/s | 5 W/m² | - |
| 1778022624 | 16.11° C | 97% | 1007.2 hPa | 1.27 mm | 0 m/s | 5 W/m² | - |
| 1778022321 | 16.11° C | 97% | 1007.3 hPa | 3.05 mm | 0 m/s | 6 W/m² | - |
| 1778022018 | 16.11° C | 97% | 1007.2 hPa | 3.05 mm | 0.89 m/s, 212° | 5 W/m² | - |
| 1778021714 | 16.11° C | 97% | 1007.5 hPa | 3.05 mm | 0.45 m/s, 229° | 6 W/m² | - |
| 1778021411 | 16.11° C | 97% | 1007.3 hPa | 1.78 mm | 0.45 m/s, 233° | 18 W/m² | - |
| 1778021108 | 16.11° C | 97% | 1007.4 hPa | 1.27 mm | 0.89 m/s, 219° | 23 W/m² | - |
| 1778020805 | 16.11° C | 97% | 1007.5 hPa | 1.27 mm | 0.45 m/s, 233° | 31 W/m² | - |
| 1778020502 | 16.11° C | 97% | 1007.6 hPa | 0 mm | 0.45 m/s, 233° | 26 W/m² | - |
| 1778020198 | 16.11° C | 97% | 1007.6 hPa | 1.78 mm | 0 m/s | 12 W/m² | - |
| 1778019894 | 16.11° C | 97% | 1007.5 hPa | 4.83 mm | 0 m/s | 24 W/m² | - |
| 1778019590 | 16.11° C | 97% | 1007.4 hPa | 8.89 mm | 1.34 m/s, 212° | 33 W/m² | - |
| 1778019287 | 16.11° C | 97% | 1007.9 hPa | 6.1 mm | 0.45 m/s, 232° | 23 W/m² | - |
| 1778018985 | 16.11° C | 97% | 1008 hPa | 3.05 mm | 0 m/s | 15 W/m² | - |
| 1778018682 | 16.11° C | 97% | 1007.9 hPa | 4.83 mm | 0 m/s | 19 W/m² | - |
| 1778018379 | 16.11° C | 97% | 1007.9 hPa | 6.1 mm | 0 m/s | 16 W/m² | - |
* Rain latest hour (hover to see other rain measurements)
** Current wind speed in m/s (hover to see current wind gust speed)